Terminal Aerodrome Forecast
Issued by NWS Twin Cities, MN

Home | Current Version | Previous Version | Text Only | Print | Product List | Glossary On
Versions: 1 2 3 4 5 6 7 8 9 10 11 12 13 14 15 16 17 18 19 20 21 22 23 24 25 26
000
FTUS43 KMPX 170300 CCA
TAFMSP
TAF COR
KMSP 170342Z 1704/1806 36012KT 3SM -RA BR OVC006
      TEMPO 1704/1706 1 1/2SM -FZRASN BR OVC007
     FM170600 35012KT P6SM OVC010
     FM170700 34012G20KT P6SM OVC015
     FM171200 34007KT P6SM OVC020
     FM171800 36009KT P6SM SCT020 OVC040
     FM180000 32008KT P6SM SCT100=

USA.gov is the U.S. government's official web portal to all federal, state and local government web resources and services.